createdAt,value
2023-02-03T00:01:25.725Z,0.50
2023-02-03T00:03:53.810Z,0.70
2023-02-03T00:06:22.075Z,1.00
2023-02-03T00:08:50.718Z,0.68
2023-02-03T00:11:19.127Z,1.30
2023-02-03T00:13:47.218Z,1.15
2023-02-03T00:16:16.694Z,0.90
2023-02-03T00:18:44.907Z,1.13
2023-02-03T00:21:14.577Z,1.48
2023-02-03T00:23:42.742Z,1.50
2023-02-03T00:26:12.017Z,0.95
2023-02-03T00:28:40.283Z,1.65
2023-02-03T00:31:15.623Z,0.45
2023-02-03T00:33:45.168Z,0.63
2023-02-03T00:36:14.186Z,2.47
2023-02-03T00:38:42.257Z,0.95
2023-02-03T00:41:10.663Z,1.33
2023-02-03T00:43:38.974Z,0.85
2023-02-03T00:46:07.306Z,1.95
2023-02-03T00:48:35.434Z,2.70
2023-02-03T00:51:05.402Z,3.05
2023-02-03T00:53:33.956Z,1.60
2023-02-03T00:56:02.298Z,1.55
2023-02-03T00:58:30.437Z,2.10
2023-02-03T01:00:58.771Z,2.75
2023-02-03T01:03:26.940Z,2.65
2023-02-03T01:05:55.356Z,3.13
2023-02-03T01:08:24.820Z,3.70
2023-02-03T01:10:53.250Z,3.40
2023-02-03T01:13:21.327Z,4.68
2023-02-03T01:15:49.652Z,1.58
2023-02-03T01:18:18.064Z,1.50
2023-02-03T01:20:46.161Z,2.35
2023-02-03T01:23:14.249Z,2.80
2023-02-03T01:25:44.010Z,2.70
2023-02-03T01:28:12.203Z,2.97
2023-02-03T01:30:40.495Z,4.43
2023-02-03T01:33:08.944Z,4.63
2023-02-03T01:35:37.347Z,4.47
2023-02-03T01:38:05.755Z,3.15
2023-02-03T01:40:34.161Z,3.58
2023-02-03T01:43:03.633Z,4.57
2023-02-03T01:45:31.731Z,4.80
2023-02-03T01:48:01.185Z,3.30
2023-02-03T01:50:33.021Z,2.58
2023-02-03T01:53:03.327Z,5.47
2023-02-03T01:55:37.359Z,4.85
2023-02-03T01:58:10.918Z,2.67
2023-02-03T02:00:39.435Z,5.55
2023-02-03T02:03:08.950Z,5.80
2023-02-03T02:05:40.480Z,4.57
2023-02-03T02:08:09.996Z,6.53
2023-02-03T02:10:38.380Z,7.05
2023-02-03T02:13:08.375Z,7.43
2023-02-03T02:15:44.938Z,5.00
2023-02-03T02:18:29.680Z,8.65
2023-02-03T02:21:27.437Z,10.23
2023-02-03T02:24:18.247Z,9.88
2023-02-03T02:26:59.026Z,9.38
2023-02-03T02:29:54.101Z,9.60
2023-02-03T02:32:37.227Z,6.95
2023-02-03T02:35:14.420Z,3.47
2023-02-03T02:37:52.248Z,9.35
2023-02-03T02:40:26.868Z,8.57
2023-02-03T02:43:06.343Z,5.47
2023-02-03T02:45:45.927Z,4.93
2023-02-03T02:48:22.722Z,7.28
2023-02-03T02:50:54.480Z,7.30
2023-02-03T02:53:26.092Z,8.05
2023-02-03T02:55:56.647Z,8.32
2023-02-03T02:58:26.165Z,9.63
2023-02-03T03:00:54.262Z,8.43
2023-02-03T03:03:25.524Z,8.48
2023-02-03T03:05:56.930Z,7.28
2023-02-03T03:08:29.706Z,8.63
2023-02-03T03:10:59.526Z,7.28
2023-02-03T03:13:33.064Z,9.00
2023-02-03T03:16:03.371Z,2.42
2023-02-03T03:18:37.870Z,6.05
2023-02-03T03:21:08.087Z,5.45
2023-02-03T03:23:40.063Z,3.95
2023-02-03T03:26:15.161Z,6.32
2023-02-03T03:28:48.247Z,5.25
2023-02-03T03:31:18.050Z,5.22
2023-02-03T03:33:49.215Z,6.88
2023-02-03T03:36:25.151Z,6.05
2023-02-03T03:38:58.954Z,6.18
2023-02-03T03:41:36.296Z,7.85
2023-02-03T03:44:08.255Z,6.07
2023-02-03T03:46:44.433Z,6.18
2023-02-03T03:49:15.103Z,7.45
2023-02-03T03:51:48.364Z,4.65
2023-02-03T03:54:21.523Z,5.32
2023-02-03T03:56:54.773Z,6.13
2023-02-03T03:59:25.553Z,6.07
2023-02-03T04:01:54.451Z,4.35
2023-02-03T04:04:27.225Z,6.22
2023-02-03T04:06:55.803Z,5.55
2023-02-03T04:09:23.931Z,6.18
2023-02-03T04:12:06.039Z,6.30
2023-02-03T04:14:38.205Z,3.80
2023-02-03T04:17:07.037Z,2.65
2023-02-03T04:19:36.607Z,6.53
2023-02-03T04:22:04.711Z,6.47
2023-02-03T04:24:33.008Z,4.88
2023-02-03T04:27:01.138Z,6.75
2023-02-03T04:29:29.214Z,5.93
2023-02-03T04:31:57.400Z,4.93
2023-02-03T04:34:25.795Z,6.30
2023-02-03T04:36:55.551Z,6.45
2023-02-03T04:39:23.751Z,5.78
2023-02-03T04:41:52.220Z,3.95
2023-02-03T04:44:20.302Z,5.75
2023-02-03T04:46:48.381Z,4.22
2023-02-03T04:49:17.747Z,6.55
2023-02-03T04:51:46.231Z,4.45
2023-02-03T04:54:16.052Z,2.88
2023-02-03T04:56:44.171Z,5.25
2023-02-03T04:59:12.402Z,4.10
2023-02-03T05:01:40.874Z,5.60
2023-02-03T05:04:08.961Z,2.85
2023-02-03T05:06:37.365Z,4.13
2023-02-03T05:09:05.565Z,5.10
2023-02-03T05:11:35.477Z,3.80
2023-02-03T05:14:03.591Z,2.92
2023-02-03T05:16:32.109Z,4.45
2023-02-03T05:19:00.552Z,3.22
2023-02-03T05:21:28.629Z,5.50
2023-02-03T05:23:56.730Z,4.30
2023-02-03T05:26:24.878Z,3.42
2023-02-03T05:28:56.105Z,4.65
2023-02-03T05:31:24.842Z,4.18
2023-02-03T05:33:52.927Z,3.58
2023-02-03T05:36:21.333Z,4.68
2023-02-03T05:38:49.739Z,5.20
2023-02-03T05:41:35.348Z,6.38
2023-02-03T05:44:05.122Z,3.42
2023-02-03T05:46:33.226Z,4.03
2023-02-03T05:49:01.537Z,4.82
2023-02-03T05:51:29.953Z,4.25
2023-02-03T05:53:58.390Z,4.15
2023-02-03T05:56:26.568Z,4.38
2023-02-03T05:58:54.914Z,3.80
2023-02-03T06:01:24.608Z,3.95
2023-02-03T06:03:53.052Z,2.95
2023-02-03T06:06:21.350Z,4.22
2023-02-03T06:08:51.475Z,4.75
2023-02-03T06:11:19.955Z,4.85
2023-02-03T06:13:48.757Z,4.38
2023-02-03T06:16:17.279Z,3.30
2023-02-03T06:18:46.783Z,3.80
2023-02-03T06:21:15.360Z,4.82
2023-02-03T06:23:43.492Z,3.50
2023-02-03T06:26:11.650Z,4.00
2023-02-03T06:28:39.854Z,2.78
2023-02-03T06:31:08.345Z,4.38
2023-02-03T06:33:36.894Z,3.95
2023-02-03T06:36:07.216Z,3.50
2023-02-03T06:38:35.430Z,4.45
2023-02-03T06:41:03.750Z,2.65
2023-02-03T06:43:31.836Z,2.67
2023-02-03T06:46:00.390Z,3.05
2023-02-03T06:48:28.509Z,4.50
2023-02-03T06:50:56.822Z,2.75
2023-02-03T06:53:26.660Z,3.63
2023-02-03T06:55:54.762Z,4.13
2023-02-03T06:58:22.892Z,3.70
2023-02-03T07:00:51.512Z,2.92
2023-02-03T07:03:19.672Z,3.75
2023-02-03T07:05:48.103Z,3.03
2023-02-03T07:08:16.181Z,3.20
2023-02-03T07:10:45.943Z,3.38
2023-02-03T07:13:14.042Z,2.53
2023-02-03T07:15:42.160Z,2.38
2023-02-03T07:18:11.742Z,4.40
2023-02-03T07:20:40.049Z,2.75
2023-02-03T07:23:08.434Z,3.35
2023-02-03T07:25:36.523Z,3.50
2023-02-03T07:28:06.807Z,2.42
2023-02-03T07:30:34.945Z,3.10
2023-02-03T07:33:03.486Z,2.50
2023-02-03T07:35:31.951Z,2.53
2023-02-03T07:38:00.386Z,2.45
2023-02-03T07:40:29.199Z,1.83
2023-02-03T07:42:57.457Z,2.28
2023-02-03T07:45:27.392Z,2.15
2023-02-03T07:47:55.503Z,3.35
2023-02-03T07:50:23.558Z,2.58
2023-02-03T07:52:52.356Z,2.75
2023-02-03T07:55:20.564Z,3.03
2023-02-03T07:57:48.683Z,2.92
2023-02-03T08:00:18.052Z,3.20
2023-02-03T08:02:48.225Z,1.95
2023-02-03T08:05:16.916Z,2.42
2023-02-03T08:07:45.375Z,2.80
2023-02-03T08:10:15.667Z,2.60
2023-02-03T08:12:45.355Z,2.75
2023-02-03T08:15:14.363Z,2.17
2023-02-03T08:17:43.410Z,2.60
2023-02-03T08:20:13.930Z,1.77
2023-02-03T08:22:42.077Z,2.15
2023-02-03T08:25:10.954Z,2.30
2023-02-03T08:27:39.355Z,1.83
2023-02-03T08:30:09.455Z,2.38
2023-02-03T08:32:37.590Z,2.08
2023-02-03T08:35:06.376Z,2.05
2023-02-03T08:37:35.907Z,2.35
2023-02-03T08:40:04.739Z,2.70
2023-02-03T08:42:33.168Z,2.72
2023-02-03T08:45:03.982Z,2.50
2023-02-03T08:47:33.063Z,2.95
2023-02-03T08:50:01.162Z,2.60
2023-02-03T08:52:29.259Z,2.45
2023-02-03T08:54:58.768Z,2.40
2023-02-03T08:57:27.253Z,3.40
2023-02-03T08:59:55.395Z,2.83
2023-02-03T09:02:23.520Z,2.95
2023-02-03T09:04:52.316Z,2.17
2023-02-03T09:07:20.451Z,3.30
2023-02-03T09:09:48.628Z,2.05
2023-02-03T09:12:18.275Z,2.22
2023-02-03T09:14:46.656Z,1.70
2023-02-03T09:17:15.060Z,1.75
2023-02-03T09:19:43.215Z,3.22
2023-02-03T09:22:11.467Z,1.65
2023-02-03T09:24:40.014Z,2.63
2023-02-03T09:27:08.201Z,2.60
2023-02-03T09:29:38.107Z,2.65
2023-02-03T09:32:08.893Z,2.47
2023-02-03T09:34:37.608Z,2.83
2023-02-03T09:37:05.769Z,2.35
2023-02-03T09:39:33.905Z,2.70
2023-02-03T09:42:26.084Z,2.92
2023-02-03T09:45:08.367Z,1.63
2023-02-03T09:47:39.127Z,2.25
2023-02-03T09:50:12.923Z,2.65
2023-02-03T09:52:44.538Z,1.80
2023-02-03T09:55:26.682Z,1.23
2023-02-03T09:57:59.955Z,2.28
2023-02-03T10:00:33.879Z,2.05
2023-02-03T10:03:08.478Z,1.50
2023-02-03T10:05:54.488Z,1.40
2023-02-03T10:08:36.083Z,2.22
2023-02-03T10:11:16.269Z,2.03
2023-02-03T10:13:52.354Z,1.65
2023-02-03T10:16:55.053Z,1.52
2023-02-03T10:19:28.575Z,1.15
2023-02-03T10:21:59.609Z,1.80
2023-02-03T10:24:37.519Z,1.60
2023-02-03T10:27:06.162Z,1.52
2023-02-03T10:29:39.956Z,1.67
2023-02-03T10:32:12.104Z,1.42
2023-02-03T10:34:41.286Z,2.33
2023-02-03T10:37:19.070Z,1.60
2023-02-03T10:39:50.027Z,0.85
2023-02-03T10:42:18.794Z,1.25
2023-02-03T10:44:50.126Z,0.98
2023-02-03T10:47:30.401Z,0.95
2023-02-03T10:50:00.342Z,0.90
2023-02-03T10:52:31.635Z,0.90
2023-02-03T10:55:00.464Z,1.48
2023-02-03T10:57:31.084Z,1.38
2023-02-03T11:00:22.964Z,1.08
2023-02-03T11:03:00.737Z,1.40
2023-02-03T11:05:29.336Z,1.77
2023-02-03T11:07:58.430Z,1.75
2023-02-03T11:10:36.193Z,1.40
2023-02-03T11:13:22.150Z,1.58
2023-02-03T11:15:58.526Z,1.80
2023-02-03T11:18:39.151Z,1.38
2023-02-03T11:21:17.613Z,1.70
2023-02-03T11:24:04.814Z,1.63
2023-02-03T11:26:37.383Z,1.65
2023-02-03T11:29:08.357Z,1.98
2023-02-03T11:31:38.245Z,1.52
2023-02-03T11:34:17.226Z,1.67
2023-02-03T11:36:45.765Z,1.42
2023-02-03T11:39:28.034Z,1.77
2023-02-03T11:41:56.574Z,0.95
2023-02-03T11:44:29.343Z,1.55
2023-02-03T11:47:00.832Z,2.10
2023-02-03T11:49:58.697Z,1.63
2023-02-03T11:52:59.745Z,1.70
2023-02-03T11:55:48.567Z,1.90
2023-02-03T11:58:41.537Z,1.77
2023-02-03T12:01:19.629Z,1.25
2023-02-03T12:04:19.820Z,2.13
2023-02-03T12:07:11.885Z,2.75
2023-02-03T12:09:52.722Z,1.10
2023-02-03T12:12:49.891Z,2.58
2023-02-03T12:15:31.577Z,2.33
2023-02-03T12:18:25.285Z,2.25
2023-02-03T12:21:07.169Z,2.28
2023-02-03T12:23:46.986Z,3.22
2023-02-03T12:26:21.842Z,1.88
2023-02-03T12:28:56.965Z,2.63
2023-02-03T12:31:31.700Z,2.97
2023-02-03T12:34:19.238Z,1.33
2023-02-03T12:36:54.564Z,1.92
2023-02-03T12:39:30.741Z,3.10
2023-02-03T12:42:02.716Z,2.22
2023-02-03T12:44:34.488Z,1.60
2023-02-03T12:47:08.608Z,4.13
2023-02-03T12:49:44.459Z,1.80
2023-02-03T12:52:20.115Z,2.38
2023-02-03T12:54:55.902Z,1.85
2023-02-03T12:57:29.793Z,2.28
2023-02-03T13:00:17.652Z,2.78
2023-02-03T13:02:57.761Z,1.52
2023-02-03T13:05:31.687Z,2.05
2023-02-03T13:08:07.571Z,2.13
2023-02-03T13:10:44.079Z,1.75
2023-02-03T13:13:17.139Z,2.67
2023-02-03T13:15:47.014Z,1.77
2023-02-03T13:18:26.613Z,1.45
2023-02-03T13:20:55.608Z,2.20
2023-02-03T13:23:24.695Z,1.70
2023-02-03T13:26:18.577Z,2.70
2023-02-03T13:29:03.916Z,2.85
2023-02-03T13:31:43.774Z,2.65
2023-02-03T13:34:38.204Z,1.63
2023-02-03T13:37:44.044Z,1.67
2023-02-03T13:40:24.050Z,2.33
2023-02-03T13:42:59.812Z,1.88
2023-02-03T13:45:32.031Z,1.95
2023-02-03T13:48:10.498Z,1.88
2023-02-03T13:50:39.972Z,1.40
2023-02-03T13:53:15.853Z,1.73
2023-02-03T13:55:46.618Z,2.50
2023-02-03T13:58:24.264Z,0.98
2023-02-03T14:01:30.779Z,2.30
2023-02-03T14:03:59.417Z,2.70
2023-02-03T14:06:59.301Z,2.58
2023-02-03T14:09:47.113Z,2.13
2023-02-03T14:12:32.346Z,1.77
2023-02-03T14:15:14.270Z,1.73
2023-02-03T14:18:17.819Z,1.88
2023-02-03T14:21:10.741Z,2.25
2023-02-03T14:24:02.248Z,1.90
2023-02-03T14:26:39.301Z,1.70
2023-02-03T14:29:09.029Z,2.08
2023-02-03T14:32:00.754Z,0.88
2023-02-03T14:34:38.478Z,1.60
2023-02-03T14:37:24.309Z,2.47
2023-02-03T14:40:15.273Z,2.15
2023-02-03T14:43:25.709Z,1.63
2023-02-03T14:46:36.534Z,1.65
2023-02-03T14:49:28.541Z,2.47
2023-02-03T14:52:13.451Z,2.00
2023-02-03T14:55:10.331Z,2.50
2023-02-03T14:57:44.106Z,1.17
2023-02-03T15:00:31.436Z,2.10
2023-02-03T15:03:25.495Z,1.40
2023-02-03T15:05:57.616Z,1.80
2023-02-03T15:08:40.428Z,1.80
2023-02-03T15:11:29.735Z,1.60
2023-02-03T15:13:59.429Z,1.75
2023-02-03T15:16:28.001Z,1.48
2023-02-03T15:18:59.004Z,1.75
2023-02-03T15:21:28.594Z,2.38
2023-02-03T15:23:57.116Z,1.52
2023-02-03T15:26:26.497Z,1.83
2023-02-03T15:28:59.187Z,1.90
2023-02-03T15:31:34.016Z,1.55
2023-02-03T15:34:08.007Z,1.23
2023-02-03T15:36:44.454Z,1.67
2023-02-03T15:39:23.020Z,2.88
2023-02-03T15:41:55.604Z,1.58
2023-02-03T15:44:34.319Z,2.17
2023-02-03T15:47:05.601Z,1.33
2023-02-03T15:49:40.454Z,1.98
2023-02-03T15:52:15.804Z,0.93
2023-02-03T15:54:53.411Z,1.40
2023-02-03T15:57:24.986Z,1.23
2023-02-03T15:59:58.055Z,1.60
2023-02-03T16:02:31.669Z,1.98
2023-02-03T16:05:04.434Z,1.27
2023-02-03T16:07:34.021Z,2.85
2023-02-03T16:10:02.460Z,1.90
2023-02-03T16:12:32.580Z,1.98
2023-02-03T16:15:03.101Z,2.25
2023-02-03T16:17:33.774Z,2.83
2023-02-03T16:20:26.677Z,2.20
2023-02-03T16:23:06.048Z,2.13
2023-02-03T16:25:36.085Z,1.77
2023-02-03T16:28:32.609Z,1.88
2023-02-03T16:31:21.130Z,1.45
2023-02-03T16:34:07.985Z,1.42
2023-02-03T16:36:58.393Z,1.48
2023-02-03T16:39:45.731Z,1.92
2023-02-03T16:42:34.524Z,2.90
2023-02-03T16:45:20.857Z,2.40
2023-02-03T16:48:06.581Z,1.70
2023-02-03T16:50:51.222Z,2.72
2023-02-03T16:53:21.720Z,2.40
2023-02-03T16:55:52.458Z,2.97
2023-02-03T16:58:21.266Z,2.53
2023-02-03T17:00:51.639Z,2.85
2023-02-03T17:03:22.460Z,1.75
2023-02-03T17:05:52.084Z,1.80
2023-02-03T17:08:22.036Z,1.67
2023-02-03T17:10:52.283Z,1.55
2023-02-03T17:13:21.799Z,2.28
2023-02-03T17:15:54.511Z,1.45
2023-02-03T17:18:23.866Z,1.48
2023-02-03T17:20:52.338Z,2.03
2023-02-03T17:23:20.823Z,1.70
2023-02-03T17:25:52.334Z,2.15
2023-02-03T17:28:20.538Z,1.30
2023-02-03T17:30:57.995Z,2.75
2023-02-03T17:33:27.024Z,1.02
2023-02-03T17:36:03.362Z,1.85
2023-02-03T17:38:31.776Z,1.67
2023-02-03T17:54:52.391Z,1.23
2023-02-03T17:57:21.869Z,1.77
2023-02-03T17:59:54.341Z,1.42
2023-02-03T18:02:22.804Z,2.28
2023-02-03T18:04:51.361Z,2.45
2023-02-03T18:07:19.437Z,2.50
2023-02-03T18:09:47.546Z,1.58
2023-02-03T18:12:15.769Z,1.65
2023-02-03T18:14:45.275Z,1.33
2023-02-03T18:17:13.469Z,1.73
2023-02-03T18:19:46.646Z,1.40
2023-02-03T18:22:17.295Z,2.20
2023-02-03T18:24:50.836Z,1.40
2023-02-03T18:27:19.025Z,2.15
2023-02-03T18:29:49.322Z,1.30
2023-02-03T18:32:17.937Z,2.22
2023-02-03T18:34:46.119Z,2.15
2023-02-03T18:37:14.871Z,1.75
2023-02-03T18:39:42.988Z,1.63
2023-02-03T18:42:11.191Z,2.00
2023-02-03T18:44:41.583Z,1.73
2023-02-03T18:47:11.455Z,1.80
2023-02-03T18:49:40.875Z,1.67
2023-02-03T18:52:09.298Z,1.70
2023-02-03T18:54:37.424Z,1.88
2023-02-03T18:57:06.219Z,1.73
2023-02-03T18:59:34.805Z,1.40
2023-02-03T19:02:02.954Z,1.52
2023-02-03T19:04:32.593Z,2.28
2023-02-03T19:07:00.798Z,2.55
2023-02-03T19:09:29.315Z,1.42
2023-02-03T19:11:58.820Z,1.65
2023-02-03T19:14:28.779Z,1.75
2023-02-03T19:16:57.033Z,2.00
2023-02-03T19:19:25.851Z,2.15
2023-02-03T19:21:55.489Z,2.05
2023-02-03T19:24:24.983Z,2.03
2023-02-03T19:26:53.439Z,2.35
2023-02-03T19:29:21.716Z,2.15
2023-02-03T19:31:49.986Z,1.08
2023-02-03T19:34:18.892Z,2.10
2023-02-03T19:36:47.630Z,3.55
2023-02-03T19:39:18.804Z,2.90
2023-02-03T19:41:47.306Z,2.75
2023-02-03T19:44:15.974Z,1.40
2023-02-03T19:46:44.555Z,3.10
2023-02-03T19:49:13.412Z,1.42
2023-02-03T19:51:42.475Z,2.58
2023-02-03T19:54:12.749Z,2.67
2023-02-03T19:56:42.310Z,1.92
2023-02-03T19:59:10.555Z,2.20
2023-02-03T20:01:39.288Z,1.77
2023-02-03T20:04:08.576Z,2.25
2023-02-03T20:06:37.568Z,1.67
2023-02-03T20:09:06.296Z,2.20
2023-02-03T20:11:34.849Z,1.92
2023-02-03T20:14:05.001Z,2.58
2023-02-03T20:16:33.695Z,2.53
2023-02-03T20:19:04.367Z,1.85
2023-02-03T20:21:32.956Z,1.77
2023-02-03T20:24:01.405Z,1.58
2023-02-03T20:26:29.968Z,1.73
2023-02-03T20:28:58.074Z,2.47
2023-02-03T20:31:28.172Z,1.55
2023-02-03T20:33:56.931Z,1.33
2023-02-03T20:36:25.523Z,2.13
2023-02-03T20:38:53.748Z,1.52
2023-02-03T20:41:22.240Z,1.65
2023-02-03T20:43:50.655Z,1.98
2023-02-03T20:46:20.894Z,2.17
2023-02-03T20:48:50.795Z,1.88
2023-02-03T20:51:22.323Z,1.10
2023-02-03T20:53:51.764Z,1.52
2023-02-03T20:56:22.038Z,1.73
2023-02-03T20:58:50.667Z,1.55
2023-02-03T21:01:21.653Z,1.95
2023-02-03T21:04:08.630Z,1.20
2023-02-03T21:06:37.165Z,1.13
2023-02-03T21:09:15.041Z,1.77
2023-02-03T21:11:43.581Z,1.85
2023-02-03T21:14:23.285Z,2.67
2023-02-03T21:16:53.819Z,1.00
2023-02-03T21:19:30.107Z,1.35
2023-02-03T21:21:58.720Z,0.82
2023-02-03T21:24:29.748Z,0.82
2023-02-03T21:26:58.698Z,1.98
2023-02-03T21:29:30.060Z,1.40
2023-02-03T21:31:58.609Z,1.05
2023-02-03T21:34:31.102Z,1.17
2023-02-03T21:37:08.517Z,1.50
2023-02-03T21:39:36.854Z,1.30
2023-02-03T21:42:41.628Z,0.90
2023-02-03T21:45:30.975Z,1.85
2023-02-03T21:48:00.302Z,1.55
2023-02-03T21:50:31.764Z,2.15
2023-02-03T21:53:17.567Z,1.40
2023-02-03T21:55:45.690Z,1.30
2023-02-03T21:58:23.405Z,1.33
2023-02-03T22:00:53.425Z,2.33
2023-02-03T22:03:26.566Z,1.27
2023-02-03T22:06:14.279Z,1.35
2023-02-03T22:08:44.197Z,2.35
2023-02-03T22:11:13.337Z,1.60
2023-02-03T22:13:41.674Z,1.80
2023-02-03T22:16:10.661Z,2.30
2023-02-03T22:18:39.767Z,1.73
2023-02-03T22:21:09.608Z,1.70
2023-02-03T22:23:37.769Z,1.55
2023-02-03T22:26:06.521Z,1.63
2023-02-03T22:28:34.912Z,2.20
2023-02-03T22:31:04.305Z,0.77
2023-02-03T22:33:33.501Z,1.75
2023-02-03T22:36:03.521Z,1.80
2023-02-03T22:38:33.602Z,1.58
2023-02-03T22:41:01.716Z,1.52
2023-02-03T22:43:31.251Z,1.40
2023-02-03T22:46:01.719Z,1.85
2023-02-03T22:48:30.543Z,1.40
2023-02-03T22:50:58.729Z,1.25
2023-02-03T22:53:27.460Z,1.73
2023-02-03T22:55:57.244Z,0.70
2023-02-03T22:58:25.392Z,0.60
2023-02-03T23:00:53.842Z,0.75
2023-02-03T23:03:21.942Z,0.75
2023-02-03T23:05:50.093Z,0.65
2023-02-03T23:08:18.273Z,0.70
2023-02-03T23:10:48.257Z,0.82
2023-02-03T23:13:17.809Z,0.70
2023-02-03T23:15:46.001Z,0.90
2023-02-03T23:18:14.181Z,0.90
2023-02-03T23:20:42.433Z,0.65
2023-02-03T23:23:10.853Z,0.65
2023-02-03T23:25:38.963Z,0.70
2023-02-03T23:28:07.203Z,0.50
2023-02-03T23:30:36.805Z,0.85
2023-02-03T23:33:05.391Z,0.80
2023-02-03T23:35:47.446Z,0.70
2023-02-03T23:38:16.980Z,0.82
2023-02-03T23:40:45.459Z,0.52
2023-02-03T23:43:13.840Z,1.00
2023-02-03T23:45:43.629Z,0.43
2023-02-03T23:48:12.477Z,0.88
2023-02-03T23:50:40.691Z,0.80
2023-02-03T23:53:09.077Z,1.15
2023-02-03T23:55:37.404Z,0.90
2023-02-03T23:58:06.333Z,0.52
